Time;durP1;ratioP1;P1;durP2;ratioP2;P2;SDS_P1;SDS_P2;PMS_P1;PMS_P2;Temp;Humidity;BMP_temperature;BMP_pressure;BME280_temperature;BME280_humidity;BME280_pressure;Samples;Min_cycle;Max_cycle;Signal;HPM_P1;HPM_P2
2023/07/07 00:03:29;;;;;;;9.23;4.10;;;;;;;22.90;57.86;99862.19;10463449;28;20047;-72
2023/07/07 00:08:31;;;;;;;9.55;4.03;;;;;;;22.93;57.86;99867.09;10459309;28;20041;-71
2023/07/07 00:13:32;;;;;;;9.68;3.80;;;;;;;22.88;57.96;99877.88;10469729;28;20053;-71
2023/07/07 00:18:33;;;;;;;11.60;3.65;;;;;;;22.80;57.92;99867.56;10458537;28;20033;-71
2023/07/07 00:23:37;;;;;;;15.05;4.35;;;;;;;22.55;58.54;99863.59;10470643;28;20045;-71
2023/07/07 00:28:38;;;;;;;10.95;4.15;;;;;;;22.55;58.78;99877.13;10457917;28;20463;-72
2023/07/07 00:33:39;;;;;;;6.13;3.65;;;;;;;22.45;58.98;99874.31;10466587;28;20102;-72
2023/07/07 00:38:40;;;;;;;6.15;3.53;;;;;;;22.29;59.46;99862.56;10459385;28;20038;-71
2023/07/07 00:43:40;;;;;;;7.10;4.05;;;;;;;22.21;59.89;99865.72;10456239;28;20416;-72
2023/07/07 00:48:44;;;;;;;12.07;4.38;;;;;;;21.86;61.37;99839.91;10468608;28;20044;-71
2023/07/07 00:53:51;;;;;;;9.52;4.07;;;;;;;21.87;62.13;99854.28;10456505;28;20493;-71
2023/07/07 01:04:31;;;;;;;9.50;4.68;;;;;;;21.41;62.81;99821.31;10485775;28;20048;-71
2023/07/07 01:09:32;;;;;;;15.63;4.88;;;;;;;21.61;63.86;99863.97;10497718;28;20468;-71
2023/07/07 01:14:32;;;;;;;11.98;4.75;;;;;;;21.53;64.75;99864.41;10482604;28;20045;-72
2023/07/07 01:19:56;;;;;;;22.73;4.88;;;;;;;21.64;67.03;99875.09;10455371;28;20517;-71
2023/07/07 01:25:10;;;;;;;14.82;5.00;;;;;;;21.73;67.26;99875.47;10480990;28;20075;-72
2023/07/07 01:30:27;;;;;;;19.38;4.95;;;;;;;21.81;68.76;99895.84;10455952;28;20148;-71
2023/07/07 01:35:28;;;;;;;17.92;5.68;;;;;;;21.65;67.21;99879.44;10459104;28;20041;-71
2023/07/07 01:40:53;;;;;;;14.55;5.05;;;;;;;21.75;70.79;99886.06;10461308;28;20045;-71
2023/07/07 01:46:21;;;;;;;9.68;4.32;;;;;;;21.83;72.20;99891.81;10455716;28;20059;-72
2023/07/07 01:51:37;;;;;;;35.88;6.60;;;;;;;21.75;72.54;99889.56;10481720;28;20132;-72
2023/07/07 01:56:39;;;;;;;21.23;5.50;;;;;;;21.77;70.01;99887.41;10454573;28;20051;-72
2023/07/07 02:01:40;;;;;;;18.27;4.95;;;;;;;21.85;70.07;99886.97;10480150;28;20048;-72
2023/07/07 02:06:41;;;;;;;17.98;5.32;;;;;;;21.61;69.85;99834.25;10454877;28;20042;-72
2023/07/07 02:11:41;;;;;;;19.10;4.65;;;;;;;21.68;69.63;99832.16;10454243;28;20037;-72
2023/07/07 02:16:42;;;;;;;21.65;5.50;;;;;;;22.31;69.81;99905.59;10464980;28;20048;-72
2023/07/07 02:21:43;;;;;;;62.13;6.50;;;;;;;22.44;69.84;99897.06;10453591;28;20570;-72
2023/07/07 02:26:43;;;;;;;13.45;5.10;;;;;;;22.69;70.00;99904.56;10466374;28;20049;-72
2023/07/07 02:31:44;;;;;;;9.15;4.63;;;;;;;23.22;69.41;99899.28;10454075;28;20489;-72
2023/07/07 02:36:45;;;;;;;20.77;5.60;;;;;;;23.88;68.24;99874.38;10465354;28;20075;-72
2023/07/07 02:41:55;;;;;;;10.82;4.28;;;;;;;24.96;65.49;99877.97;10453234;28;20045;-72
2023/07/07 02:46:56;;;;;;;7.78;4.53;;;;;;;26.29;61.64;99885.59;10464204;28;20036;-72
2023/07/07 02:51:56;;;;;;;9.65;4.28;;;;;;;27.50;58.83;99882.03;10452944;28;20055;-73
2023/07/07 02:56:57;;;;;;;12.35;4.55;;;;;;;28.24;55.09;99795.00;10455587;28;20471;-72
2023/07/07 03:01:58;;;;;;;20.83;5.07;;;;;;;29.54;52.47;99832.19;10468167;28;20143;-73
2023/07/07 03:06:59;;;;;;;17.00;4.95;;;;;;;31.03;49.67;99884.28;10456363;28;20033;-73
2023/07/07 03:12:00;;;;;;;10.07;4.07;;;;;;;31.85;46.95;99835.25;10464181;28;20093;-73
2023/07/07 03:17:00;;;;;;;18.48;4.82;;;;;;;32.76;45.08;99843.59;10460628;28;20127;-73
2023/07/07 03:22:01;;;;;;;11.55;3.67;;;;;;;33.13;42.78;99837.31;10471387;28;20083;-73
2023/07/07 03:27:02;;;;;;;12.02;4.00;;;;;;;33.28;42.08;99844.22;10459870;28;20052;-73
2023/07/07 03:32:03;;;;;;;40.47;4.65;;;;;;;33.68;41.57;99887.88;10460193;28;20057;-73
2023/07/07 03:37:04;;;;;;;7.10;3.90;;;;;;;33.83;40.46;99869.97;10471232;28;20041;-73
2023/07/07 03:42:08;;;;;;;7.43;3.50;;;;;;;34.03;39.70;99871.94;10474987;28;20045;-73
2023/07/07 03:47:09;;;;;;;7.38;3.30;;;;;;;33.76;38.21;99804.38;10459498;28;20469;-71
2023/07/07 03:52:10;;;;;;;6.95;3.28;;;;;;;34.51;37.67;99862.25;10470452;28;20048;-70
2023/07/07 03:57:10;;;;;;;7.13;3.10;;;;;;;34.71;36.91;99848.78;10464135;28;20056;-69
2023/07/07 04:02:12;;;;;;;21.55;3.80;;;;;;;34.53;36.33;99864.69;10464307;28;20033;-68
2023/07/07 04:07:13;;;;;;;6.18;3.30;;;;;;;34.66;35.54;99862.78;10469511;28;20067;-69
2023/07/07 04:12:14;;;;;;;13.27;3.83;;;;;;;33.99;34.81;99806.81;10500169;28;20080;-68
2023/07/07 04:17:14;;;;;;;6.13;3.30;;;;;;;33.96;34.98;99844.09;10475226;28;20075;-68
2023/07/07 04:22:15;;;;;;;5.93;3.00;;;;;;;34.24;35.10;99857.34;10457513;28;20044;-70
2023/07/07 04:27:16;;;;;;;9.27;3.30;;;;;;;34.14;35.13;99799.88;10473172;28;20412;-68
2023/07/07 04:32:16;;;;;;;5.65;3.05;;;;;;;34.44;35.84;99845.47;10494606;28;20045;-69
2023/07/07 04:37:17;;;;;;;11.93;3.10;;;;;;;34.63;35.04;99839.44;10480389;28;20045;-70
2023/07/07 04:42:18;;;;;;;8.27;3.03;;;;;;;34.38;35.55;99821.22;10456209;28;20078;-69
2023/07/07 04:47:19;;;;;;;15.97;7.17;;;;;;;33.95;35.02;99776.34;10479643;28;20583;-71
2023/07/07 04:52:20;;;;;;;13.57;5.32;;;;;;;34.27;34.93;99837.38;10457370;28;20194;-70
2023/07/07 04:57:20;;;;;;;6.78;4.03;;;;;;;34.24;34.83;99840.78;10456346;28;20037;-68
2023/07/07 05:02:22;;;;;;;9.70;3.70;;;;;;;34.03;34.91;99836.13;10457021;28;20587;-68
2023/07/07 05:07:25;;;;;;;14.90;3.40;;;;;;;33.90;35.11;99822.59;10456658;28;20408;-69
2023/07/07 05:12:25;;;;;;;;;;;;;;;34.25;34.44;99828.63;10457079;28;20041;-68
2023/07/07 05:17:26;;;;;;;14.18;3.08;;;;;;;33.37;35.74;99831.19;10456201;28;19922;-68
2023/07/07 05:22:26;;;;;;;13.02;3.30;;;;;;;32.79;37.04;99797.00;10471557;28;20040;-68
2023/07/07 05:27:27;;;;;;;7.75;2.78;;;;;;;31.83;37.62;99746.91;10455637;28;20048;-69
2023/07/07 05:32:28;;;;;;;14.60;3.45;;;;;;;32.08;38.66;99813.97;10456094;28;20098;-68
2023/07/07 05:37:29;;;;;;;8.60;3.28;;;;;;;31.98;39.09;99809.63;10454598;28;20044;-67
2023/07/07 05:42:29;;;;;;;16.60;3.80;;;;;;;31.88;38.79;99798.09;10455104;28;20135;-68
2023/07/07 05:47:30;;;;;;;7.63;2.83;;;;;;;31.79;39.37;99776.13;10454425;28;20056;-67
2023/07/07 05:52:31;;;;;;;6.13;3.15;;;;;;;32.02;39.21;99798.78;10454570;28;20101;-68
2023/07/07 05:57:31;;;;;;;14.77;3.60;;;;;;;32.23;38.25;99793.41;10454774;28;20045;-68
2023/07/07 06:02:32;;;;;;;10.45;4.03;;;;;;;32.32;38.21;99754.94;10454090;28;20041;-68
2023/07/07 06:07:33;;;;;;;13.93;3.38;;;;;;;32.50;37.64;99756.50;10454518;28;20036;-68
2023/07/07 06:12:35;;;;;;;9.45;3.17;;;;;;;32.49;38.08;99746.66;10453805;28;20048;-68
2023/07/07 06:17:36;;;;;;;10.88;3.15;;;;;;;32.53;37.77;99753.09;10454768;28;20040;-68
2023/07/07 06:22:37;;;;;;;15.93;3.58;;;;;;;32.77;37.51;99746.22;10454718;28;20496;-67
2023/07/07 06:27:38;;;;;;;15.52;3.10;;;;;;;32.83;37.33;99728.38;10454299;28;20056;-68
2023/07/07 06:32:38;;;;;;;33.88;5.65;;;;;;;33.18;35.36;99746.31;10453400;28;20087;-67
2023/07/07 06:37:39;;;;;;;22.63;3.58;;;;;;;33.23;35.39;99739.00;10454655;28;20033;-68
2023/07/07 06:42:40;;;;;;;14.02;3.65;;;;;;;33.31;35.53;99732.63;10453208;28;20039;-68
2023/07/07 06:47:40;;;;;;;9.07;3.35;;;;;;;33.16;34.81;99681.75;10453823;28;20037;-68
2023/07/07 06:52:41;;;;;;;18.23;3.47;;;;;;;33.56;34.81;99739.09;10461756;28;20048;-68
2023/07/07 06:57:42;;;;;;;14.05;3.97;;;;;;;33.81;34.39;99745.53;10462187;28;20041;-68
2023/07/07 07:02:44;;;;;;;20.00;4.00;;;;;;;33.81;34.15;99746.34;10461437;28;20040;-68
2023/07/07 07:07:45;;;;;;;16.98;4.35;;;;;;;33.52;33.87;99648.09;10460617;28;20041;-68
2023/07/07 07:12:47;;;;;;;23.33;3.85;;;;;;;34.25;33.60;99721.94;10460960;28;20040;-67
2023/07/07 07:17:48;;;;;;;;;;;;;;;34.56;32.32;99715.09;10461744;28;20132;-69
2023/07/07 07:22:49;;;;;;;13.27;3.40;;;;;;;34.48;33.06;99725.03;10460034;28;20027;-68
2023/07/07 07:27:50;;;;;;;34.03;5.13;;;;;;;34.47;32.52;99701.38;10460613;28;20053;-68
2023/07/07 07:32:50;;;;;;;44.75;5.90;;;;;;;34.71;32.63;99692.34;10460394;28;20044;-67
2023/07/07 07:37:51;;;;;;;56.72;6.13;;;;;;;34.66;31.89;99628.31;10459986;28;20033;-67
2023/07/07 07:42:52;;;;;;;18.88;3.80;;;;;;;35.12;31.31;99686.88;10476311;28;20041;-67
2023/07/07 07:47:53;;;;;;;54.78;5.78;;;;;;;35.18;30.82;99693.75;10460195;28;20037;-66
2023/07/07 07:52:54;;;;;;;51.22;6.13;;;;;;;35.39;31.27;99669.56;10458779;28;20132;-67
2023/07/07 07:57:54;;;;;;;53.45;7.35;;;;;;;35.13;30.43;99628.56;10458863;28;20052;-67
2023/07/07 08:02:55;;;;;;;39.22;4.68;;;;;;;35.50;30.41;99663.53;10459455;28;20044;-67
2023/07/07 08:07:56;;;;;;;30.27;4.70;;;;;;;35.55;30.31;99666.88;10458903;28;20132;-68
2023/07/07 08:12:56;;;;;;;24.50;5.20;;;;;;;35.88;30.40;99657.47;10459003;28;20135;-68
2023/07/07 08:17:57;;;;;;;30.83;4.93;;;;;;;35.77;29.56;99656.38;10458559;28;20498;-67
2023/07/07 08:22:58;;;;;;;18.08;3.83;;;;;;;35.22;29.85;99559.41;10457967;28;20497;-67
2023/07/07 08:27:59;;;;;;;19.13;4.18;;;;;;;36.05;29.45;99650.84;10458047;28;20136;-68
2023/07/07 08:33:01;;;;;;;26.02;5.13;;;;;;;35.98;30.08;99595.34;10458007;28;20560;-67
2023/07/07 08:38:02;;;;;;;27.60;3.92;;;;;;;36.46;29.34;99641.16;10457761;28;20033;-67
2023/07/07 08:43:02;;;;;;;12.97;4.87;;;;;;;36.43;29.17;99616.19;10458150;28;20045;-69
2023/07/07 08:48:03;;;;;;;35.95;8.10;;;;;;;35.99;28.93;99517.59;10456941;28;20044;-68
2023/07/07 08:53:22;;;;;;;31.10;8.35;;;;;;;36.66;27.76;99625.47;10457208;28;20140;-68
2023/07/07 08:58:28;;;;;;;29.30;6.93;;;;;;;36.58;28.30;99606.28;10456482;28;20039;-66
2023/07/07 09:04:10;;;;;;;31.40;5.60;;;;;;;36.75;27.90;99595.63;10456209;28;20044;-66
2023/07/07 09:09:28;;;;;;;35.50;5.47;;;;;;;36.78;28.65;99597.66;10456382;28;20036;-67
2023/07/07 09:14:30;;;;;;;36.03;4.78;;;;;;;36.86;28.62;99592.28;10464709;28;20033;-67
2023/07/07 09:19:39;;;;;;;32.45;6.72;;;;;;;36.94;27.43;99582.94;10478146;28;20045;-66
2023/07/07 09:24:49;;;;;;;27.63;5.90;;;;;;;36.95;26.78;99581.81;10459350;28;20033;-68
2023/07/07 09:29:58;;;;;;;14.50;4.70;;;;;;;36.93;27.04;99576.63;10454542;28;20103;-68
2023/07/07 09:34:58;;;;;;;38.60;5.30;;;;;;;37.02;27.31;99534.91;10453463;28;20052;-67
2023/07/07 09:40:10;;;;;;;34.70;5.03;;;;;;;37.28;27.60;99555.59;10457210;28;20037;-66
2023/07/07 09:45:17;;;;;;;17.35;4.57;;;;;;;37.40;27.14;99566.47;10453962;28;20156;-67
2023/07/07 09:50:27;;;;;;;28.90;7.18;;;;;;;37.07;26.89;99498.63;10451867;28;20040;-67
2023/07/07 10:00:55;;;;;;;25.38;4.70;;;;;;;37.54;26.74;99535.47;10413185;28;20037;-67
2023/07/07 10:17:14;;;;;;;23.50;4.45;;;;;;;37.57;26.58;99524.44;10427492;28;20044;-66
2023/07/07 10:22:15;;;;;;;25.38;4.75;;;;;;;37.49;27.37;99500.59;10456578;28;20048;-66
2023/07/07 10:27:23;;;;;;;19.27;4.70;;;;;;;37.73;27.56;99504.94;10478624;28;20432;-68
2023/07/07 10:32:24;;;;;;;24.83;5.00;;;;;;;37.88;27.03;99497.66;10463190;28;20840;-67
2023/07/07 10:37:29;;;;;;;38.47;5.57;;;;;;;37.60;26.31;99440.59;10462551;28;20037;-67
2023/07/07 10:42:32;;;;;;;13.45;3.83;;;;;;;37.89;26.71;99493.69;10461758;28;20045;-68
2023/07/07 10:53:23;;;;;;;20.77;4.43;;;;;;;37.96;25.89;99485.50;10461833;28;20041;-67
2023/07/07 10:58:49;;;;;;;24.15;5.15;;;;;;;37.91;27.08;99477.50;10474198;28;20512;-67
2023/07/07 11:04:25;;;;;;;21.17;4.65;;;;;;;38.03;25.62;99480.09;10470373;28;20041;-68
2023/07/07 11:09:53;;;;;;;32.45;5.00;;;;;;;38.02;25.64;99463.81;10467790;28;20056;-67
2023/07/07 11:15:03;;;;;;;35.63;5.30;;;;;;;38.13;25.56;99473.88;10470333;28;20492;-68
2023/07/07 11:20:12;;;;;;;37.70;5.03;;;;;;;37.84;25.31;99411.63;10419149;28;20107;-67
2023/07/07 11:25:31;;;;;;;28.25;4.00;;;;;;;37.94;23.31;99465.69;10419389;28;20493;-68
2023/07/07 11:30:58;;;;;;;30.90;5.57;;;;;;;38.09;23.69;99458.38;10419465;28;20099;-68
2023/07/07 14:59:46;;;;;;;30.35;5.70;;;;;;;35.88;24.26;99364.53;10482221;28;20402;-66
2023/07/07 15:04:47;;;;;;;47.10;6.67;;;;;;;35.79;24.85;99367.50;10482160;28;20048;-67
2023/07/07 15:09:47;;;;;;;37.65;5.95;;;;;;;35.65;24.76;99378.22;10482910;28;20407;-66
2023/07/07 15:14:48;;;;;;;31.10;5.95;;;;;;;34.97;24.42;99299.25;10481629;28;20049;-66
2023/07/07 15:19:49;;;;;;;49.40;6.25;;;;;;;35.32;24.93;99373.88;10482578;28;20037;-65
2023/07/07 15:24:50;;;;;;;21.90;4.78;;;;;;;34.76;24.87;99316.09;10481807;28;20051;-65
2023/07/07 15:29:51;;;;;;;55.28;7.32;;;;;;;34.93;25.07;99375.66;10482343;28;20037;-66
2023/07/07 15:34:52;;;;;;;28.23;6.05;;;;;;;34.80;25.15;99391.47;10481644;28;20101;-65
2023/07/07 15:39:53;;;;;;;33.78;6.30;;;;;;;34.08;25.44;99314.25;10481969;28;20036;-65
2023/07/07 15:44:53;;;;;;;41.55;6.53;;;;;;;34.33;25.55;99397.63;10465708;28;20083;-65
2023/07/07 15:49:54;;;;;;;32.47;5.75;;;;;;;33.30;25.53;99268.59;10439774;28;20038;-66
2023/07/07 15:54:55;;;;;;;53.83;7.50;;;;;;;33.70;25.88;99365.03;10439978;28;20435;-65
2023/07/07 15:59:56;;;;;;;42.58;7.18;;;;;;;33.88;26.14;99403.34;10416669;28;20037;-66
2023/07/07 16:04:57;;;;;;;28.50;6.10;;;;;;;33.24;26.66;99339.59;10412122;28;20048;-67
2023/07/07 16:09:58;;;;;;;26.17;5.53;;;;;;;33.54;27.22;99417.28;10412055;28;20569;-66
2023/07/07 16:15:00;;;;;;;26.02;5.10;;;;;;;33.40;27.29;99411.28;10411134;28;20045;-68
2023/07/07 16:20:31;;;;;;;24.90;5.10;;;;;;;32.79;27.72;99345.94;10411587;28;20091;-66
2023/07/07 16:25:32;;;;;;;32.58;5.05;;;;;;;32.51;27.64;99337.50;10411475;28;20145;-66
2023/07/07 16:30:41;;;;;;;25.50;4.55;;;;;;;32.92;28.32;99432.03;10410165;28;20609;-67
2023/07/07 16:35:42;;;;;;;24.52;5.13;;;;;;;32.74;28.66;99436.91;10410688;28;20037;-66
2023/07/07 16:40:44;;;;;;;30.33;5.53;;;;;;;32.18;29.03;99373.97;10411483;28;20140;-66
2023/07/07 16:45:45;;;;;;;34.50;5.45;;;;;;;32.43;29.21;99418.09;10410798;28;20037;-67
2023/07/07 16:50:47;;;;;;;38.55;5.47;;;;;;;32.26;29.41;99419.81;10409964;28;20097;-68
2023/07/07 16:55:48;;;;;;;32.33;5.88;;;;;;;31.98;30.24;99396.75;10410936;28;20079;-66
2023/07/07 17:00:49;;;;;;;21.88;4.53;;;;;;;31.63;29.88;99363.22;10410424;28;20124;-66
2023/07/07 17:05:49;;;;;;;21.88;4.40;;;;;;;31.80;29.63;99424.31;10409531;28;20048;-66
2023/07/07 17:10:50;;;;;;;41.92;5.10;;;;;;;31.78;30.19;99431.28;10381223;28;20076;-66
2023/07/07 17:15:51;;;;;;;22.77;4.38;;;;;;;31.66;29.94;99437.47;10346032;28;20170;-66
2023/07/07 17:20:52;;;;;;;19.20;4.13;;;;;;;31.24;30.36;99384.38;10346960;28;20083;-68
2023/07/07 17:25:52;;;;;;;16.95;3.80;;;;;;;30.96;30.23;99362.81;10334667;28;20433;-69
2023/07/07 17:30:53;;;;;;;28.45;4.68;;;;;;;31.30;30.45;99438.72;10339826;28;20045;-65
2023/07/07 17:35:54;;;;;;;17.33;3.88;;;;;;;30.75;30.90;99368.16;10341900;28;20038;-66
2023/07/07 17:40:55;;;;;;;26.20;4.10;;;;;;;30.91;30.94;99415.91;10340833;28;20490;-67
2023/07/07 17:45:55;;;;;;;17.92;3.88;;;;;;;30.85;31.30;99424.66;10342170;28;20183;-67
2023/07/07 17:50:56;;;;;;;15.90;4.15;;;;;;;30.73;31.24;99430.78;10329823;28;20045;-66
2023/07/07 17:55:57;;;;;;;25.58;4.47;;;;;;;30.55;32.30;99427.25;10347872;28;20095;-67
2023/07/07 18:00:58;;;;;;;35.88;5.30;;;;;;;30.37;33.02;99422.91;10329035;28;20050;-66
2023/07/07 18:05:59;;;;;;;20.42;3.97;;;;;;;29.99;33.67;99379.66;10346783;28;20056;-66
2023/07/07 18:11:00;;;;;;;27.88;4.40;;;;;;;30.11;34.33;99425.56;10343780;28;20042;-66
2023/07/07 18:16:01;;;;;;;22.58;4.80;;;;;;;29.53;34.73;99340.75;10345729;28;20050;-66
2023/07/07 18:21:21;;;;;;;26.83;6.72;;;;;;;29.38;35.51;99333.00;10359569;28;20049;-65
2023/07/07 18:26:34;;;;;;;39.63;7.68;;;;;;;29.56;36.80;99381.16;10336669;28;20042;-66
2023/07/07 18:31:37;;;;;;;37.35;5.72;;;;;;;29.44;37.18;99388.38;10339907;28;20058;-66
2023/07/07 18:36:40;;;;;;;55.47;7.45;;;;;;;29.04;37.97;99347.31;10336743;28;20047;-66
2023/07/07 18:41:40;;;;;;;35.63;6.53;;;;;;;29.45;38.46;99417.34;10328738;28;20039;-67
2023/07/07 18:46:42;;;;;;;34.33;5.45;;;;;;;29.38;39.09;99404.13;10345219;28;20050;-66
2023/07/07 18:51:45;;;;;;;32.17;4.40;;;;;;;29.35;39.64;99421.16;10345493;28;20128;-66
2023/07/07 18:56:46;;;;;;;15.75;4.80;;;;;;;28.90;40.22;99366.56;10331282;28;20106;-67
2023/07/07 19:01:47;;;;;;;18.98;4.40;;;;;;;29.22;40.34;99422.84;10331533;28;20486;-67
2023/07/07 19:06:48;;;;;;;11.90;3.92;;;;;;;28.75;40.58;99364.19;10339755;28;20053;-67
2023/07/07 19:11:52;;;;;;;16.50;4.72;;;;;;;29.05;40.71;99440.00;10332630;28;20416;-67
2023/07/07 19:16:54;;;;;;;20.08;4.63;;;;;;;28.87;40.83;99421.84;10343633;28;20064;-67
2023/07/07 19:21:55;;;;;;;21.63;4.57;;;;;;;28.95;40.82;99442.94;10362154;28;20047;-67
2023/07/07 19:26:55;;;;;;;10.57;3.38;;;;;;;28.86;40.75;99439.34;10341624;28;20559;-67
2023/07/07 19:32:15;;;;;;;11.45;5.10;;;;;;;28.77;41.30;99449.41;10352314;28;20065;-66
2023/07/07 19:37:16;;;;;;;144.10;101.68;;;;;;;28.20;41.02;99357.03;10350234;28;20029;-67
2023/07/07 19:42:17;;;;;;;35.33;17.45;;;;;;;28.59;41.05;99437.56;10341970;28;20046;-67
2023/07/07 19:47:18;;;;;;;32.53;7.28;;;;;;;28.54;41.97;99435.75;10330749;28;20070;-66
2023/07/07 19:52:19;;;;;;;22.30;5.63;;;;;;;28.37;42.85;99414.53;10422068;28;20043;-67
2023/07/07 19:57:22;;;;;;;14.38;5.32;;;;;;;28.31;43.93;99443.09;10338612;28;20652;-67
2023/07/07 20:02:26;;;;;;;15.85;4.70;;;;;;;27.58;44.59;99333.00;10346230;28;20081;-65
2023/07/07 20:07:26;;;;;;;14.07;4.57;;;;;;;27.65;45.54;99392.63;10329436;28;20074;-67
2023/07/07 20:12:27;;;;;;;11.02;4.60;;;;;;;27.51;45.99;99378.97;10349147;28;20080;-67
2023/07/07 20:17:28;;;;;;;14.05;4.60;;;;;;;27.07;46.82;99336.72;10346933;28;20129;-67
2023/07/07 20:22:29;;;;;;;14.43;4.32;;;;;;;27.40;47.96;99421.19;10342097;28;20050;-67
2023/07/07 20:27:29;;;;;;;10.68;4.35;;;;;;;27.45;48.21;99426.56;10350540;28;20535;-67
2023/07/07 20:32:30;;;;;;;12.73;4.30;;;;;;;27.30;48.43;99414.03;10353329;28;20050;-68
2023/07/07 20:37:33;;;;;;;14.90;4.13;;;;;;;27.25;49.32;99412.22;10361853;28;20049;-67
2023/07/07 20:42:33;;;;;;;12.32;4.72;;;;;;;27.23;49.23;99411.72;10330900;28;20050;-67
2023/07/07 20:47:34;;;;;;;10.30;4.32;;;;;;;27.06;49.41;99381.47;10328775;28;20102;-67
2023/07/07 20:52:35;;;;;;;13.63;3.97;;;;;;;26.17;49.30;99248.97;10328193;28;20065;-67
2023/07/07 20:57:36;;;;;;;10.25;4.22;;;;;;;27.12;49.83;99410.25;10328946;28;20066;-67
2023/07/07 21:02:36;;;;;;;10.57;4.32;;;;;;;27.20;49.68;99406.84;10329499;28;20038;-68
2023/07/07 21:07:37;;;;;;;9.43;4.40;;;;;;;26.75;50.25;99340.34;10345037;28;20052;-68
2023/07/07 21:12:38;;;;;;;20.77;11.48;;;;;;;26.53;50.10;99309.09;10328953;28;20425;-67
2023/07/07 21:17:39;;;;;;;19.73;10.40;;;;;;;26.49;50.78;99323.59;10328447;28;20034;-67
2023/07/07 21:22:40;;;;;;;18.98;7.90;;;;;;;26.96;51.23;99403.47;10328241;28;20046;-68
2023/07/07 21:27:41;;;;;;;30.55;11.70;;;;;;;26.78;51.41;99386.06;10328433;28;20382;-67
2023/07/07 21:32:42;;;;;;;31.63;16.88;;;;;;;26.81;52.07;99394.44;10326721;28;20128;-67
2023/07/07 21:37:44;;;;;;;29.08;9.90;;;;;;;26.60;52.41;99387.72;10327353;28;20116;-67
2023/07/07 21:42:45;;;;;;;13.50;4.77;;;;;;;26.48;53.06;99384.63;10332604;28;20142;-67
2023/07/07 21:47:54;;;;;;;11.10;4.55;;;;;;;26.32;54.98;99379.38;10332632;28;20050;-67
2023/07/07 21:52:56;;;;;;;15.10;5.63;;;;;;;26.06;54.27;99342.78;10327612;28;20046;-67
2023/07/07 21:57:57;;;;;;;14.40;7.30;;;;;;;26.06;54.25;99345.50;10326424;28;20059;-66
2023/07/07 22:03:00;;;;;;;26.40;12.65;;;;;;;26.11;54.94;99340.78;10327128;28;20497;-67
2023/07/07 22:08:01;;;;;;;26.60;9.68;;;;;;;26.13;54.69;99348.66;10325938;28;20092;-67
2023/07/07 22:13:02;;;;;;;11.70;5.97;;;;;;;26.07;55.16;99337.03;10327515;28;20497;-68
2023/07/07 22:18:10;;;;;;;14.07;5.47;;;;;;;25.89;55.49;99321.53;10325413;28;20446;-68
2023/07/07 22:23:12;;;;;;;11.88;4.88;;;;;;;25.95;56.37;99336.66;10326379;28;20133;-67
2023/07/07 22:28:23;;;;;;;9.10;4.45;;;;;;;25.97;58.14;99342.63;10325745;28;20141;-67
2023/07/07 22:33:26;;;;;;;10.93;5.28;;;;;;;25.91;57.49;99344.63;10326919;28;20124;-67
2023/07/07 22:38:28;;;;;;;10.55;4.90;;;;;;;25.84;57.38;99335.19;10326670;28;20046;-67
2023/07/07 22:43:28;;;;;;;11.38;4.82;;;;;;;24.52;59.00;99170.72;10341878;28;20460;-68
2023/07/07 22:48:29;;;;;;;8.48;4.50;;;;;;;25.17;60.40;99346.06;10325624;28;20201;-67
2023/07/07 22:53:30;;;;;;;7.78;4.57;;;;;;;24.28;61.17;99241.22;10325065;28;20046;-67
2023/07/07 22:58:31;;;;;;;11.75;4.70;;;;;;;24.01;61.67;99230.06;10325949;28;20111;-67
2023/07/07 23:03:31;;;;;;;9.88;4.90;;;;;;;24.67;61.83;99329.16;10325389;28;20390;-67
2023/07/07 23:08:32;;;;;;;17.00;5.25;;;;;;;23.98;62.26;99238.78;10328503;28;20069;-67
2023/07/07 23:13:33;;;;;;;6.70;4.70;;;;;;;24.59;62.72;99328.69;10332401;28;20039;-67
2023/07/07 23:18:37;;;;;;;9.85;5.15;;;;;;;24.45;62.76;99322.28;10330630;28;20050;-67
2023/07/07 23:23:38;;;;;;;10.75;5.35;;;;;;;23.53;63.16;99190.00;10331906;28;20596;-67
2023/07/07 23:28:39;;;;;;;7.00;4.65;;;;;;;24.47;63.59;99330.97;10331578;28;20133;-67
2023/07/07 23:33:40;;;;;;;12.02;5.00;;;;;;;24.36;63.52;99326.69;10331766;28;20043;-67
2023/07/07 23:38:40;;;;;;;12.55;5.00;;;;;;;24.47;63.50;99339.09;10330087;28;20050;-67
2023/07/07 23:43:41;;;;;;;14.77;5.00;;;;;;;24.43;64.17;99335.31;10330869;28;20096;-67
2023/07/07 23:48:43;;;;;;;13.18;5.35;;;;;;;23.84;64.47;99247.56;10329951;28;20038;-67
2023/07/07 23:53:45;;;;;;;17.30;5.68;;;;;;;24.24;66.41;99327.03;10331434;28;20073;-67
2023/07/07 23:58:47;;;;;;;16.00;5.53;;;;;;;24.04;66.00;99327.97;10330846;28;20107;-67
